createdAt,value
2023-05-19T00:00:51.524Z,29.28
2023-05-19T00:01:51.536Z,29.26
2023-05-19T00:02:51.628Z,29.28
2023-05-19T00:03:51.600Z,29.31
2023-05-19T00:04:51.651Z,29.26
2023-05-19T00:05:51.702Z,29.28
2023-05-19T00:06:51.746Z,29.32
2023-05-19T00:07:51.739Z,29.26
2023-05-19T00:08:51.779Z,29.31
2023-05-19T00:09:51.812Z,29.28
2023-05-19T00:10:51.844Z,29.31
2023-05-19T00:11:51.861Z,29.28
2023-05-19T00:12:53.778Z,29.31
2023-05-19T00:13:51.925Z,29.28
2023-05-19T00:14:51.986Z,29.33
2023-05-19T00:15:52.008Z,29.34
2023-05-19T00:16:51.992Z,29.33
2023-05-19T00:17:51.992Z,29.30
2023-05-19T00:18:52.030Z,29.32
2023-05-19T00:19:51.970Z,29.30
2023-05-19T00:20:52.000Z,29.33
2023-05-19T00:21:52.030Z,29.36
2023-05-19T00:22:52.011Z,29.39
2023-05-19T00:23:52.010Z,29.34
2023-05-19T00:24:52.009Z,29.38
2023-05-19T00:25:52.042Z,29.36
2023-05-19T00:26:52.046Z,29.41
2023-05-19T00:27:52.046Z,29.36
2023-05-19T00:28:52.041Z,29.38
2023-05-19T00:29:52.066Z,29.32
2023-05-19T00:30:52.076Z,29.41
2023-05-19T00:31:52.119Z,29.37
2023-05-19T00:32:52.092Z,29.41
2023-05-19T00:33:52.080Z,29.39
2023-05-19T00:34:52.064Z,29.41
2023-05-19T00:35:52.062Z,29.44
2023-05-19T00:36:52.057Z,29.39
2023-05-19T00:37:52.101Z,29.42
2023-05-19T00:38:52.142Z,29.46
2023-05-19T00:39:52.155Z,29.43
2023-05-19T00:40:52.184Z,29.39
2023-05-19T00:41:52.247Z,29.46
2023-05-19T00:42:52.263Z,29.45
2023-05-19T00:43:52.319Z,29.50
2023-05-19T00:44:52.336Z,29.45
2023-05-19T00:45:52.364Z,29.46
2023-05-19T00:46:52.431Z,29.49
2023-05-19T00:47:52.461Z,29.45
2023-05-19T00:48:52.485Z,29.46
2023-05-19T00:49:52.506Z,29.50
2023-05-19T00:50:52.529Z,29.47
2023-05-19T00:51:52.585Z,29.51
2023-05-19T00:52:52.604Z,29.50
2023-05-19T00:53:52.633Z,29.49
2023-05-19T00:54:52.658Z,29.53
2023-05-19T00:55:52.706Z,29.49
2023-05-19T00:56:52.748Z,29.53
2023-05-19T00:57:52.782Z,29.51
2023-05-19T00:58:52.821Z,29.51
2023-05-19T00:59:52.877Z,29.54
2023-05-19T01:00:52.925Z,29.53
2023-05-19T01:01:52.963Z,29.57
2023-05-19T01:02:53.163Z,29.53
2023-05-19T01:03:53.066Z,29.53
2023-05-19T01:04:53.057Z,29.53
2023-05-19T01:05:53.093Z,29.54
2023-05-19T01:06:53.132Z,29.54
2023-05-19T01:07:53.162Z,29.50
2023-05-19T01:08:53.215Z,29.54
2023-05-19T01:09:53.234Z,29.54
2023-05-19T01:10:53.286Z,29.60
2023-05-19T01:11:53.336Z,29.55
2023-05-19T01:12:53.377Z,29.59
2023-05-19T01:13:53.396Z,29.59
2023-05-19T01:14:53.449Z,29.59
2023-05-19T01:15:53.479Z,29.64
2023-05-19T01:16:53.515Z,29.59
2023-05-19T01:17:53.631Z,29.61
2023-05-19T01:18:53.608Z,29.60
2023-05-19T01:19:53.648Z,29.62
2023-05-19T01:20:53.679Z,29.67
2023-05-19T01:21:53.720Z,29.67
2023-05-19T01:22:53.734Z,29.65
2023-05-19T01:23:53.778Z,29.60
2023-05-19T01:24:53.819Z,29.62
2023-05-19T01:25:53.850Z,29.67
2023-05-19T01:26:53.844Z,29.66
2023-05-19T01:27:53.841Z,29.66
2023-05-19T01:28:53.864Z,29.68
2023-05-19T01:29:53.901Z,29.71
2023-05-19T01:30:53.968Z,29.66
2023-05-19T01:31:54.033Z,29.69
2023-05-19T01:32:54.094Z,29.70
2023-05-19T01:33:54.076Z,29.69
2023-05-19T01:34:54.135Z,29.66
2023-05-19T01:35:54.156Z,29.67
2023-05-19T01:36:54.188Z,29.74
2023-05-19T01:37:54.233Z,29.69
2023-05-19T01:38:54.266Z,29.74
2023-05-19T01:39:54.282Z,29.72
2023-05-19T01:40:54.316Z,29.78
2023-05-19T01:41:54.373Z,29.72
2023-05-19T01:42:56.152Z,29.75
2023-05-19T01:43:54.399Z,29.79
2023-05-19T01:44:54.372Z,29.73
2023-05-19T01:45:54.414Z,29.76
2023-05-19T01:46:54.361Z,29.74
2023-05-19T01:47:54.399Z,29.75
2023-05-19T01:48:54.369Z,29.75
2023-05-19T01:49:54.354Z,29.75
2023-05-19T01:50:54.337Z,29.75
2023-05-19T01:51:54.349Z,29.75
2023-05-19T01:52:54.337Z,29.76
2023-05-19T01:53:54.320Z,29.79
2023-05-19T01:54:54.320Z,29.74
2023-05-19T01:55:54.438Z,29.81
2023-05-19T01:56:54.329Z,29.76
2023-05-19T01:57:54.316Z,29.80
2023-05-19T01:58:54.296Z,29.79
2023-05-19T01:59:54.300Z,29.78
2023-05-19T02:00:54.341Z,29.76
2023-05-19T02:01:54.312Z,29.73
2023-05-19T02:02:54.320Z,29.76
2023-05-19T02:03:54.309Z,29.76
2023-05-19T02:04:54.317Z,29.74
2023-05-19T02:05:54.246Z,29.80
2023-05-19T02:06:54.254Z,29.81
2023-05-19T02:07:54.244Z,29.77
2023-05-19T02:08:54.226Z,29.73
2023-05-19T02:09:54.226Z,29.74
2023-05-19T02:10:54.213Z,29.76
2023-05-19T02:11:54.207Z,29.76
2023-05-19T02:12:54.218Z,29.79
2023-05-19T02:13:54.205Z,29.79
2023-05-19T02:14:54.194Z,29.83
2023-05-19T02:15:54.249Z,29.77
2023-05-19T02:16:54.171Z,29.82
2023-05-19T02:17:54.214Z,29.77
2023-05-19T02:18:54.235Z,29.80
2023-05-19T02:19:54.166Z,29.74
2023-05-19T02:20:54.141Z,29.77
2023-05-19T02:21:54.151Z,29.80
2023-05-19T02:22:54.150Z,29.80
2023-05-19T02:23:54.141Z,29.79
2023-05-19T02:24:54.114Z,29.79
2023-05-19T02:25:54.149Z,29.80
2023-05-19T02:26:54.150Z,29.80
2023-05-19T02:27:54.146Z,29.91
2023-05-19T02:28:54.099Z,29.84
2023-05-19T02:29:54.082Z,29.81
2023-05-19T02:30:54.078Z,29.84
2023-05-19T02:31:54.126Z,29.85
2023-05-19T02:32:54.159Z,29.85
2023-05-19T02:33:54.061Z,29.85
2023-05-19T02:34:54.068Z,29.85
2023-05-19T02:35:54.052Z,29.85
2023-05-19T02:36:54.052Z,29.88
2023-05-19T02:37:54.063Z,29.86
2023-05-19T02:38:54.069Z,29.86
2023-05-19T02:39:54.123Z,29.88
2023-05-19T02:40:54.161Z,29.85
2023-05-19T02:41:54.202Z,29.88
2023-05-19T02:42:54.232Z,29.88
2023-05-19T02:43:54.330Z,29.96
2023-05-19T02:44:54.305Z,29.85
2023-05-19T02:45:54.375Z,29.93
2023-05-19T02:46:54.431Z,29.90
2023-05-19T02:47:54.452Z,29.92
2023-05-19T02:48:54.466Z,29.90
2023-05-19T02:49:54.527Z,29.94
2023-05-19T02:50:54.553Z,29.93
2023-05-19T02:51:54.612Z,29.93
2023-05-19T02:52:54.626Z,30.00
2023-05-19T02:53:54.684Z,29.98
2023-05-19T02:54:54.740Z,29.97
2023-05-19T02:55:54.781Z,29.99
2023-05-19T02:56:54.805Z,29.94
2023-05-19T02:57:54.831Z,29.99
2023-05-19T02:58:54.886Z,29.96
2023-05-19T02:59:54.924Z,29.95
2023-05-19T03:00:54.967Z,29.96
2023-05-19T03:01:55.125Z,30.01
2023-05-19T03:02:55.181Z,29.94
2023-05-19T03:03:55.165Z,29.99
2023-05-19T03:04:55.128Z,29.98
2023-05-19T03:05:55.162Z,29.97
2023-05-19T03:06:55.190Z,29.94
2023-05-19T03:07:55.235Z,29.98
2023-05-19T03:08:55.268Z,29.95
2023-05-19T03:09:55.330Z,30.05
2023-05-19T03:10:55.381Z,29.98
2023-05-19T03:11:55.405Z,30.08
2023-05-19T03:12:55.423Z,29.98
2023-05-19T03:13:55.486Z,30.01
2023-05-19T03:14:55.509Z,30.02
2023-05-19T03:15:55.594Z,30.01
2023-05-19T03:16:55.699Z,30.02
2023-05-19T03:17:55.763Z,29.99
2023-05-19T03:18:55.770Z,29.99
2023-05-19T03:19:55.735Z,29.97
2023-05-19T03:20:55.757Z,29.99
2023-05-19T03:21:55.810Z,30.02
2023-05-19T03:22:55.856Z,30.05
2023-05-19T03:23:55.891Z,30.05
2023-05-19T03:24:55.989Z,29.99
2023-05-19T03:25:55.971Z,30.04
2023-05-19T03:26:56.032Z,30.05
2023-05-19T03:27:56.053Z,30.09
2023-05-19T03:28:56.111Z,30.05
2023-05-19T03:29:56.142Z,30.03
2023-05-19T03:30:56.193Z,30.02
2023-05-19T03:31:56.253Z,30.08
2023-05-19T03:32:56.376Z,30.02
2023-05-19T03:33:56.340Z,30.07
2023-05-19T03:34:56.369Z,30.05
2023-05-19T03:35:56.417Z,30.06
2023-05-19T03:36:56.444Z,30.06
2023-05-19T03:37:56.479Z,30.08
2023-05-19T03:38:56.537Z,30.06
2023-05-19T03:39:56.567Z,30.05
2023-05-19T03:40:56.622Z,30.09
2023-05-19T03:41:56.669Z,30.03
2023-05-19T03:42:56.705Z,30.03
2023-05-19T03:43:56.737Z,30.07
2023-05-19T03:44:56.775Z,30.05
2023-05-19T03:45:56.840Z,30.07
2023-05-19T03:46:56.853Z,30.06
2023-05-19T03:47:56.918Z,30.08
2023-05-19T03:48:56.927Z,30.02
2023-05-19T03:49:56.964Z,30.05
2023-05-19T03:50:57.012Z,30.12
2023-05-19T03:51:57.067Z,30.10
2023-05-19T03:52:57.129Z,30.10
2023-05-19T03:53:57.139Z,30.11
2023-05-19T03:54:57.196Z,30.02
2023-05-19T03:55:57.225Z,30.06
2023-05-19T03:56:57.280Z,30.09
2023-05-19T03:57:57.413Z,30.06
2023-05-19T03:58:57.339Z,30.07
2023-05-19T03:59:57.393Z,30.06
2023-05-19T04:00:57.424Z,30.03
2023-05-19T04:01:57.500Z,30.06
2023-05-19T04:02:57.635Z,30.02
2023-05-19T04:03:57.585Z,30.05
2023-05-19T04:04:57.846Z,30.06
2023-05-19T04:05:57.630Z,30.06
2023-05-19T04:06:57.698Z,30.06
2023-05-19T04:07:57.720Z,30.10
2023-05-19T04:08:57.760Z,30.11
2023-05-19T04:09:57.816Z,30.09
2023-05-19T04:10:57.848Z,30.08
2023-05-19T04:11:57.892Z,30.03
2023-05-19T04:12:57.923Z,30.07
2023-05-19T04:13:57.977Z,30.07
2023-05-19T04:14:58.030Z,30.06
2023-05-19T04:15:58.073Z,30.08
2023-05-19T04:16:58.101Z,30.06
2023-05-19T04:17:58.177Z,30.13
2023-05-19T04:18:58.229Z,30.03
2023-05-19T04:19:58.214Z,30.06
2023-05-19T04:20:58.242Z,30.04
2023-05-19T04:21:58.300Z,30.03
2023-05-19T04:22:58.317Z,30.01
2023-05-19T04:23:58.370Z,30.05
2023-05-19T04:24:58.415Z,30.02
2023-05-19T04:25:58.426Z,30.04
2023-05-19T04:26:58.484Z,30.09
2023-05-19T04:27:58.500Z,30.00
2023-05-19T04:28:58.553Z,29.98
2023-05-19T04:29:58.573Z,30.05
2023-05-19T04:30:58.709Z,30.01
2023-05-19T04:31:58.569Z,30.05
2023-05-19T04:32:58.598Z,30.05
2023-05-19T04:33:58.560Z,30.08
2023-05-19T04:34:58.567Z,30.00
2023-05-19T04:35:58.557Z,29.97
2023-05-19T04:36:58.573Z,30.01
2023-05-19T04:37:58.612Z,30.00
2023-05-19T04:38:58.629Z,29.98
2023-05-19T04:39:58.673Z,30.00
2023-05-19T04:40:58.704Z,30.04
2023-05-19T04:41:58.740Z,29.99
2023-05-19T04:42:58.778Z,30.01
2023-05-19T04:43:58.815Z,30.00
2023-05-19T04:44:58.832Z,30.02
2023-05-19T04:45:58.874Z,29.99
2023-05-19T04:46:58.992Z,29.98
2023-05-19T04:47:58.982Z,29.93
2023-05-19T04:48:58.987Z,29.95
2023-05-19T04:49:59.011Z,29.94
2023-05-19T04:50:59.062Z,29.92
2023-05-19T04:51:59.084Z,29.87
2023-05-19T04:52:59.128Z,29.87
2023-05-19T04:53:59.150Z,29.86
2023-05-19T04:54:59.199Z,29.87
2023-05-19T04:55:59.218Z,29.87
2023-05-19T04:56:59.237Z,29.86
2023-05-19T04:57:59.257Z,29.82
2023-05-19T04:58:59.282Z,29.84
2023-05-19T04:59:59.292Z,29.86
2023-05-19T05:00:59.338Z,29.77
2023-05-19T05:01:59.444Z,29.82
2023-05-19T05:02:59.486Z,29.84
2023-05-19T05:03:59.480Z,29.75
2023-05-19T05:04:59.441Z,29.81
2023-05-19T05:05:59.475Z,29.72
2023-05-19T05:06:59.494Z,29.75
2023-05-19T05:07:59.556Z,29.76
2023-05-19T05:08:59.548Z,29.76
2023-05-19T05:09:59.585Z,29.77
2023-05-19T05:10:59.595Z,29.76
2023-05-19T05:11:59.625Z,29.76
2023-05-19T05:12:59.644Z,29.79
2023-05-19T05:13:59.666Z,29.76
2023-05-19T05:14:59.705Z,29.72
2023-05-19T05:15:59.792Z,29.77
2023-05-19T05:16:59.757Z,29.75
2023-05-19T05:17:59.818Z,29.75
2023-05-19T05:18:59.862Z,29.72
2023-05-19T05:19:59.844Z,29.74
2023-05-19T05:20:59.846Z,29.75
2023-05-19T05:21:59.897Z,29.67
2023-05-19T05:22:59.904Z,29.72
2023-05-19T05:23:59.935Z,29.71
2023-05-19T05:24:59.961Z,29.72
2023-05-19T05:26:00.002Z,29.71
2023-05-19T05:27:00.031Z,29.74
2023-05-19T05:28:00.055Z,29.70
2023-05-19T05:29:00.138Z,29.67
2023-05-19T05:30:00.122Z,29.75
2023-05-19T05:31:00.164Z,29.70
2023-05-19T05:32:00.199Z,29.74
2023-05-19T05:33:00.304Z,29.68
2023-05-19T05:34:00.188Z,29.70
2023-05-19T05:35:00.252Z,29.67
2023-05-19T05:36:00.272Z,29.66
2023-05-19T05:37:00.259Z,29.74
2023-05-19T05:38:00.284Z,29.67
2023-05-19T05:39:00.293Z,29.72
2023-05-19T05:40:00.444Z,29.63
2023-05-19T05:41:00.349Z,29.70
2023-05-19T05:42:00.381Z,29.69
2023-05-19T05:43:00.393Z,29.66
2023-05-19T05:44:00.400Z,29.66
2023-05-19T05:45:00.450Z,29.66
2023-05-19T05:46:00.528Z,29.64
2023-05-19T05:47:00.489Z,29.65
2023-05-19T05:48:00.524Z,29.61
2023-05-19T05:49:00.533Z,29.62
2023-05-19T05:50:00.544Z,29.64
2023-05-19T05:51:00.570Z,29.65
2023-05-19T05:52:06.124Z,29.61
2023-05-19T05:53:01.593Z,29.62
2023-05-19T05:54:00.566Z,29.59
2023-05-19T05:55:00.585Z,29.62
2023-05-19T05:56:00.565Z,29.60
2023-05-19T05:57:00.567Z,29.59
2023-05-19T05:58:00.545Z,29.61
2023-05-19T05:59:00.569Z,29.59
2023-05-19T06:00:00.542Z,29.59
2023-05-19T06:01:00.518Z,29.59
2023-05-19T06:02:00.579Z,29.60
2023-05-19T06:03:00.620Z,29.61
2023-05-19T06:04:00.524Z,29.60
2023-05-19T06:05:00.621Z,29.59
2023-05-19T06:06:00.584Z,29.63
2023-05-19T06:07:00.497Z,29.59
2023-05-19T06:08:00.489Z,29.59
2023-05-19T06:09:00.483Z,29.54
2023-05-19T06:10:00.500Z,29.56
2023-05-19T06:11:00.467Z,29.62
2023-05-19T06:12:00.475Z,29.63
2023-05-19T06:13:00.476Z,29.62
2023-05-19T06:14:00.484Z,29.59
2023-05-19T06:15:00.452Z,29.61
2023-05-19T06:16:02.008Z,29.62
2023-05-19T06:17:00.422Z,29.57
2023-05-19T06:18:00.457Z,29.54
2023-05-19T06:19:00.438Z,29.63
2023-05-19T06:20:00.412Z,29.55
2023-05-19T06:21:00.400Z,29.55
2023-05-19T06:22:00.391Z,29.55
2023-05-19T06:23:00.398Z,29.55
2023-05-19T06:24:00.426Z,29.50
2023-05-19T06:25:00.395Z,29.56
2023-05-19T06:26:00.388Z,29.52
2023-05-19T06:27:00.407Z,29.51
2023-05-19T06:28:00.416Z,29.52
2023-05-19T06:29:00.424Z,29.58
2023-05-19T06:30:00.440Z,29.56
2023-05-19T06:31:00.463Z,29.55
2023-05-19T06:32:00.457Z,29.52
2023-05-19T06:33:00.485Z,29.56
2023-05-19T06:34:00.451Z,29.48
2023-05-19T06:35:00.442Z,29.51
2023-05-19T06:36:00.457Z,29.52
2023-05-19T06:37:00.449Z,29.55
2023-05-19T06:38:00.467Z,29.56
2023-05-19T06:39:02.592Z,29.52
2023-05-19T06:40:00.460Z,29.53
2023-05-19T06:41:00.456Z,29.54
2023-05-19T06:42:00.468Z,29.50
2023-05-19T06:43:00.502Z,29.54
2023-05-19T06:44:00.464Z,29.53
2023-05-19T06:45:00.489Z,29.52
2023-05-19T06:46:00.479Z,29.52
2023-05-19T06:47:00.523Z,29.54
2023-05-19T06:48:00.578Z,29.52
2023-05-19T06:49:00.489Z,29.51
2023-05-19T06:50:00.488Z,29.53
2023-05-19T06:51:00.502Z,29.53
2023-05-19T06:52:00.561Z,29.45
2023-05-19T06:53:00.510Z,29.56
2023-05-19T06:54:00.499Z,29.52
2023-05-19T06:55:00.511Z,29.54
2023-05-19T06:56:00.649Z,29.52
2023-05-19T06:57:00.600Z,29.53
2023-05-19T06:58:00.630Z,29.53
2023-05-19T06:59:00.633Z,29.48
2023-05-19T07:00:00.615Z,29.47
2023-05-19T07:01:00.638Z,29.47
2023-05-19T07:02:00.716Z,29.44
2023-05-19T07:03:00.674Z,29.48
2023-05-19T07:04:00.796Z,29.51
2023-05-19T07:05:00.585Z,29.51
2023-05-19T07:06:00.594Z,29.47
2023-05-19T07:07:00.577Z,29.51
2023-05-19T07:08:00.575Z,29.52
2023-05-19T07:09:00.589Z,29.49
2023-05-19T07:10:00.596Z,29.48
2023-05-19T07:11:00.578Z,29.46
2023-05-19T07:12:00.587Z,29.47
2023-05-19T07:13:00.574Z,29.41
2023-05-19T07:14:00.582Z,29.43
2023-05-19T07:15:00.581Z,29.44
2023-05-19T07:16:00.772Z,29.51
2023-05-19T07:17:00.598Z,29.49
2023-05-19T07:18:00.697Z,29.54
2023-05-19T07:19:00.694Z,29.39
2023-05-19T07:20:00.671Z,29.37
2023-05-19T07:21:00.685Z,29.37
2023-05-19T07:22:00.736Z,29.37
2023-05-19T07:23:00.768Z,29.38
2023-05-19T07:24:00.792Z,29.34
2023-05-19T07:25:00.848Z,29.32
2023-05-19T07:26:00.847Z,29.28
2023-05-19T07:27:00.879Z,29.21
2023-05-19T07:28:00.911Z,29.22
2023-05-19T07:29:00.960Z,29.33
2023-05-19T07:30:00.963Z,29.34
2023-05-19T07:31:00.992Z,29.32
2023-05-19T07:32:01.107Z,29.21
2023-05-19T07:33:01.120Z,29.25
2023-05-19T07:34:01.089Z,29.22
2023-05-19T07:35:01.141Z,29.21
2023-05-19T07:36:01.163Z,29.16
2023-05-19T07:37:01.206Z,29.13
2023-05-19T07:38:01.258Z,29.11
2023-05-19T07:39:01.400Z,29.10
2023-05-19T07:40:01.324Z,29.08
2023-05-19T07:41:01.364Z,29.10
2023-05-19T07:42:01.412Z,29.06
2023-05-19T07:43:01.479Z,29.00
2023-05-19T07:44:01.524Z,29.02
2023-05-19T07:45:01.629Z,29.03
2023-05-19T07:46:01.651Z,29.03
2023-05-19T07:47:01.700Z,28.99
2023-05-19T07:48:01.914Z,29.05
2023-05-19T07:49:01.830Z,29.00
2023-05-19T07:50:01.880Z,29.04
2023-05-19T07:51:01.938Z,29.01
2023-05-19T07:52:02.038Z,28.96
2023-05-19T07:53:02.083Z,28.95
2023-05-19T07:54:02.163Z,28.94
2023-05-19T07:55:02.181Z,28.87
2023-05-19T07:56:02.230Z,28.83
2023-05-19T07:57:02.304Z,28.87
2023-05-19T07:58:02.370Z,28.83
2023-05-19T07:59:02.365Z,28.84
2023-05-19T08:00:02.381Z,28.82
2023-05-19T08:01:02.404Z,28.84
2023-05-19T08:02:02.467Z,28.81
2023-05-19T08:03:02.480Z,28.81
2023-05-19T08:04:02.810Z,28.74
2023-05-19T08:05:02.488Z,28.78
2023-05-19T08:06:02.532Z,28.74
2023-05-19T08:07:02.591Z,28.71
2023-05-19T08:08:02.618Z,28.67
2023-05-19T08:09:02.663Z,28.72
2023-05-19T08:10:02.707Z,28.69
2023-05-19T08:11:02.768Z,28.65
2023-05-19T08:12:02.815Z,28.66
2023-05-19T08:13:02.856Z,28.61
2023-05-19T08:14:02.885Z,28.63
2023-05-19T08:15:02.930Z,28.57
2023-05-19T08:16:03.051Z,28.55
2023-05-19T08:17:03.005Z,28.58
2023-05-19T08:18:03.069Z,28.58
2023-05-19T08:19:03.104Z,28.53
2023-05-19T08:20:03.131Z,28.45
2023-05-19T08:21:03.152Z,28.50
2023-05-19T08:22:03.176Z,28.43
2023-05-19T08:23:03.218Z,28.48
2023-05-19T08:24:03.241Z,28.55
2023-05-19T08:25:03.276Z,28.53
2023-05-19T08:26:03.328Z,28.48
2023-05-19T08:27:03.360Z,28.47
2023-05-19T08:28:03.380Z,28.50
2023-05-19T08:29:03.424Z,28.47
2023-05-19T08:30:03.500Z,28.57
2023-05-19T08:31:03.526Z,28.49
2023-05-19T08:32:03.557Z,28.50
2023-05-19T08:33:03.656Z,28.55
2023-05-19T08:34:03.655Z,28.58
2023-05-19T08:35:03.689Z,28.55
2023-05-19T08:36:03.733Z,28.58
2023-05-19T08:37:03.773Z,28.66
2023-05-19T08:38:03.798Z,28.60
2023-05-19T08:39:03.861Z,28.61
2023-05-19T08:40:03.897Z,28.67
2023-05-19T08:41:03.931Z,28.70
2023-05-19T08:42:03.995Z,28.70
2023-05-19T08:43:04.037Z,28.69
2023-05-19T08:44:04.082Z,28.71
2023-05-19T08:45:04.121Z,28.78
2023-05-19T08:46:04.114Z,28.75
2023-05-19T08:47:04.168Z,28.78
2023-05-19T08:48:04.295Z,28.80
2023-05-19T08:49:04.212Z,28.79
2023-05-19T08:50:04.270Z,28.83
2023-05-19T08:51:04.321Z,28.82
2023-05-19T08:52:04.426Z,28.83
2023-05-19T08:53:04.407Z,28.79
2023-05-19T08:54:04.465Z,28.86
2023-05-19T08:55:04.520Z,28.91
2023-05-19T08:56:04.576Z,28.92
2023-05-19T08:57:04.631Z,28.89
2023-05-19T08:58:04.677Z,28.91
2023-05-19T08:59:04.727Z,28.93
2023-05-19T09:00:04.802Z,28.91
2023-05-19T09:01:04.941Z,28.96
2023-05-19T09:02:04.890Z,28.94
2023-05-19T09:04:05.049Z,28.93
2023-05-19T09:05:05.139Z,28.88
2023-05-19T09:06:05.153Z,28.91
2023-05-19T09:07:05.150Z,28.91
2023-05-19T09:08:05.241Z,28.88
2023-05-19T09:09:05.265Z,28.80
2023-05-19T09:10:05.273Z,28.75
2023-05-19T09:11:05.313Z,28.76
2023-05-19T09:12:05.355Z,28.74
2023-05-19T09:13:05.370Z,28.66
2023-05-19T09:14:05.411Z,28.66
2023-05-19T09:15:05.393Z,28.66
2023-05-19T09:16:05.460Z,28.60
2023-05-19T09:17:05.643Z,28.66
2023-05-19T09:18:05.504Z,28.62
2023-05-19T09:19:05.492Z,28.60
2023-05-19T09:20:05.453Z,28.55
2023-05-19T09:21:05.462Z,28.52
2023-05-19T09:22:05.486Z,28.57
2023-05-19T09:23:05.490Z,28.51
2023-05-19T09:24:05.536Z,28.51
2023-05-19T09:25:05.541Z,28.51
2023-05-19T09:26:05.592Z,28.55
2023-05-19T09:27:05.606Z,28.51
2023-05-19T09:28:05.637Z,28.51
2023-05-19T09:29:05.663Z,28.49
2023-05-19T09:30:05.689Z,28.47
2023-05-19T09:31:05.687Z,28.46
2023-05-19T09:32:05.787Z,28.46
2023-05-19T09:33:05.823Z,28.49
2023-05-19T09:34:05.753Z,28.48
2023-05-19T09:35:05.790Z,28.42
2023-05-19T09:36:05.797Z,28.44
2023-05-19T09:37:05.817Z,28.44
2023-05-19T09:38:05.816Z,28.40
2023-05-19T09:39:05.844Z,28.43
2023-05-19T09:40:05.937Z,28.37
2023-05-19T09:41:05.882Z,28.44
2023-05-19T09:42:05.893Z,28.41
2023-05-19T09:43:05.886Z,28.38
2023-05-19T09:44:05.923Z,28.41
2023-05-19T09:45:05.906Z,28.36
2023-05-19T09:46:05.964Z,28.33
2023-05-19T09:47:05.939Z,28.29
2023-05-19T09:48:05.983Z,28.34
2023-05-19T09:49:05.976Z,28.30
2023-05-19T09:50:05.986Z,28.29
2023-05-19T09:51:06.006Z,28.34
2023-05-19T09:52:06.013Z,28.35
2023-05-19T09:53:06.013Z,28.37
2023-05-19T09:54:06.050Z,28.34
2023-05-19T09:55:06.065Z,28.35
2023-05-19T09:56:06.085Z,28.40
2023-05-19T09:57:08.425Z,28.47
2023-05-19T09:58:06.085Z,28.37
2023-05-19T09:59:06.086Z,28.41
2023-05-19T10:00:06.059Z,28.46
2023-05-19T10:01:06.181Z,28.47
2023-05-19T10:02:06.061Z,28.50
2023-05-19T10:03:06.081Z,28.56
2023-05-19T10:04:06.212Z,28.50
2023-05-19T10:05:06.070Z,28.53
2023-05-19T10:06:06.039Z,28.63
2023-05-19T10:07:06.044Z,28.62
2023-05-19T10:08:06.020Z,28.70
2023-05-19T10:09:06.013Z,28.63
2023-05-19T10:10:05.995Z,28.64
2023-05-19T10:11:06.006Z,28.63
2023-05-19T10:12:05.989Z,28.67
2023-05-19T10:13:05.989Z,28.71
2023-05-19T10:14:05.972Z,28.74
2023-05-19T10:15:05.977Z,28.68
2023-05-19T10:16:05.988Z,28.67
2023-05-19T10:17:06.027Z,28.72
2023-05-19T10:18:05.969Z,28.73
2023-05-19T10:19:05.983Z,28.79
2023-05-19T10:20:05.954Z,28.77
2023-05-19T10:21:05.936Z,28.80
2023-05-19T10:22:05.911Z,28.87
2023-05-19T10:23:05.913Z,28.88
2023-05-19T10:24:05.913Z,28.88
2023-05-19T10:25:05.903Z,28.90
2023-05-19T10:26:05.905Z,28.86
2023-05-19T10:27:05.893Z,28.86
2023-05-19T10:28:05.894Z,28.89
2023-05-19T10:29:05.866Z,28.94
2023-05-19T10:30:05.873Z,28.93
2023-05-19T10:31:05.859Z,28.96
2023-05-19T10:32:05.911Z,28.90
2023-05-19T10:33:05.877Z,28.95
2023-05-19T10:34:05.844Z,28.96
2023-05-19T10:35:05.827Z,28.95
2023-05-19T10:36:05.824Z,28.94
2023-05-19T10:37:05.824Z,28.95
2023-05-19T10:38:05.822Z,28.96
2023-05-19T10:39:05.808Z,28.91
2023-05-19T10:40:05.818Z,28.89
2023-05-19T10:41:05.818Z,28.93
2023-05-19T10:42:05.804Z,28.96
2023-05-19T10:43:05.784Z,28.95
2023-05-19T10:44:05.785Z,28.95
2023-05-19T10:45:05.775Z,28.95
2023-05-19T10:46:05.774Z,28.87
2023-05-19T10:47:05.817Z,28.94
2023-05-19T10:48:05.792Z,28.88
2023-05-19T10:49:05.733Z,28.88
2023-05-19T10:50:05.745Z,28.94
2023-05-19T10:51:06.037Z,28.88
2023-05-19T10:52:05.738Z,28.84
2023-05-19T10:53:05.730Z,28.91
2023-05-19T10:54:05.729Z,28.91
2023-05-19T10:55:05.716Z,28.83
2023-05-19T10:56:05.710Z,28.86
2023-05-19T10:57:05.717Z,28.86
2023-05-19T10:58:05.690Z,28.81
2023-05-19T10:59:05.680Z,28.81
2023-05-19T11:00:05.705Z,28.81
2023-05-19T11:01:05.664Z,28.80
2023-05-19T11:02:05.748Z,28.77
2023-05-19T11:03:05.713Z,28.74
2023-05-19T11:04:05.757Z,28.74
2023-05-19T11:05:05.725Z,28.65
2023-05-19T11:06:05.722Z,28.69
2023-05-19T11:07:05.756Z,28.67
2023-05-19T11:08:05.772Z,28.64
2023-05-19T11:09:05.793Z,28.67
2023-05-19T11:10:05.848Z,28.59
2023-05-19T11:11:05.840Z,28.59
2023-05-19T11:12:05.851Z,28.57
2023-05-19T11:13:06.566Z,28.55
2023-05-19T11:14:05.863Z,28.57
2023-05-19T11:15:05.878Z,28.57
2023-05-19T11:16:05.931Z,28.56
2023-05-19T11:17:05.974Z,28.56
2023-05-19T11:18:05.965Z,28.52
2023-05-19T11:19:05.995Z,28.61
2023-05-19T11:20:05.983Z,28.64
2023-05-19T11:21:06.024Z,28.66
2023-05-19T11:22:06.020Z,28.63
2023-05-19T11:23:06.093Z,28.63
2023-05-19T11:24:06.110Z,28.69
2023-05-19T11:25:06.104Z,28.67
2023-05-19T11:26:06.115Z,28.70
2023-05-19T11:27:06.145Z,28.76
2023-05-19T11:28:06.182Z,28.73
2023-05-19T11:29:06.207Z,28.77
2023-05-19T11:30:06.241Z,28.77
2023-05-19T11:31:06.251Z,28.86
2023-05-19T11:32:06.325Z,28.79
2023-05-19T11:33:06.388Z,28.86
2023-05-19T11:34:06.332Z,28.88
2023-05-19T11:35:06.386Z,28.93
2023-05-19T11:36:06.407Z,28.91
2023-05-19T11:37:06.408Z,28.95
2023-05-19T11:38:06.450Z,29.03
2023-05-19T11:39:06.471Z,28.99
2023-05-19T11:40:06.479Z,28.98
2023-05-19T11:41:06.506Z,29.01
2023-05-19T11:42:06.561Z,29.01
2023-05-19T11:43:06.559Z,28.99
2023-05-19T11:44:06.596Z,29.00
2023-05-19T11:45:06.607Z,29.03
2023-05-19T11:46:06.674Z,29.01
2023-05-19T11:47:06.674Z,29.01
2023-05-19T11:48:07.368Z,29.04
2023-05-19T11:49:06.730Z,29.09
2023-05-19T11:50:06.786Z,29.10
2023-05-19T11:51:06.789Z,29.13
2023-05-19T11:52:06.907Z,29.16
2023-05-19T11:53:06.871Z,29.11
2023-05-19T11:54:06.901Z,29.14
2023-05-19T11:55:06.938Z,29.23
2023-05-19T11:56:06.973Z,29.21
2023-05-19T11:57:06.990Z,29.23
2023-05-19T11:58:07.013Z,29.28
2023-05-19T11:59:07.067Z,29.23
2023-05-19T12:00:07.089Z,29.26
2023-05-19T12:01:07.138Z,29.25
2023-05-19T12:02:07.191Z,29.22
2023-05-19T12:03:07.337Z,29.26
2023-05-19T12:04:07.317Z,29.31
2023-05-19T12:05:07.276Z,29.28
2023-05-19T12:06:07.361Z,29.28
2023-05-19T12:07:07.480Z,29.29
2023-05-19T12:08:07.367Z,29.28
2023-05-19T12:09:07.401Z,29.27
2023-05-19T12:10:07.429Z,29.34
2023-05-19T12:11:07.444Z,29.27
2023-05-19T12:12:07.488Z,29.29
2023-05-19T12:13:07.496Z,29.32
2023-05-19T12:14:07.534Z,29.34
2023-05-19T12:15:07.556Z,29.29
2023-05-19T12:16:07.617Z,29.24
2023-05-19T12:17:07.625Z,29.28
2023-05-19T12:18:07.829Z,29.24
2023-05-19T12:19:07.764Z,29.31
2023-05-19T12:20:07.689Z,29.27
2023-05-19T12:21:07.723Z,29.26
2023-05-19T12:22:07.752Z,29.28
2023-05-19T12:23:07.809Z,29.37
2023-05-19T12:24:07.781Z,29.34
2023-05-19T12:25:07.804Z,29.30
2023-05-19T12:26:07.839Z,29.28
2023-05-19T12:27:07.851Z,29.37
2023-05-19T12:28:07.873Z,29.26
2023-05-19T12:29:07.889Z,29.37
2023-05-19T12:30:07.918Z,29.30
2023-05-19T12:31:07.938Z,29.36
2023-05-19T12:32:08.048Z,29.27
2023-05-19T12:33:08.012Z,29.29
2023-05-19T12:34:08.002Z,29.26
2023-05-19T12:35:08.019Z,29.28
2023-05-19T12:36:08.020Z,29.33
2023-05-19T12:37:08.046Z,29.35
2023-05-19T12:38:08.323Z,29.35
2023-05-19T12:39:08.074Z,29.31
2023-05-19T12:40:08.097Z,29.40
2023-05-19T12:41:08.111Z,29.35
2023-05-19T12:42:08.137Z,29.40
2023-05-19T12:43:08.144Z,29.39
2023-05-19T12:44:08.137Z,29.31
2023-05-19T12:45:08.162Z,29.36
2023-05-19T12:46:08.167Z,29.42
2023-05-19T12:47:08.199Z,29.36
2023-05-19T12:48:08.225Z,29.38
2023-05-19T12:49:08.214Z,29.35
2023-05-19T12:50:08.228Z,29.44
2023-05-19T12:51:08.250Z,29.42
2023-05-19T12:52:12.792Z,29.31
2023-05-19T12:53:09.268Z,29.30
2023-05-19T12:54:08.304Z,29.34